sensor_id;sensor_type;location;lat;lon;timestamp;pressure;altitude;pressure_sealevel;temperature;humidity
24858;BME280;12935;50.782;6.074;2023-03-04T00:00:09;100434.66;;;1.89;100.00
24858;BME280;12935;50.782;6.074;2023-03-04T00:02:36;100431.91;;;1.80;100.00
24858;BME280;12935;50.782;6.074;2023-03-04T00:05:02;100432.22;;;1.79;100.00
24858;BME280;12935;50.782;6.074;2023-03-04T00:07:28;100442.19;;;1.78;100.00
24858;BME280;12935;50.782;6.074;2023-03-04T00:09:54;100440.13;;;1.75;100.00
24858;BME280;12935;50.782;6.074;2023-03-04T00:12:19;100437.13;;;1.76;100.00
24858;BME280;12935;50.782;6.074;2023-03-04T00:14:45;100444.72;;;1.74;100.00
24858;BME280;12935;50.782;6.074;2023-03-04T00:17:10;100434.44;;;1.76;100.00
24858;BME280;12935;50.782;6.074;2023-03-04T00:19:35;100442.50;;;1.76;100.00
24858;BME280;12935;50.782;6.074;2023-03-04T00:22:02;100439.69;;;1.82;100.00
24858;BME280;12935;50.782;6.074;2023-03-04T00:24:28;100435.22;;;1.77;100.00
24858;BME280;12935;50.782;6.074;2023-03-04T00:26:53;100437.31;;;1.80;100.00
24858;BME280;12935;50.782;6.074;2023-03-04T00:29:18;100422.72;;;1.81;100.00
24858;BME280;12935;50.782;6.074;2023-03-04T00:31:44;100431.00;;;1.93;100.00
24858;BME280;12935;50.782;6.074;2023-03-04T00:34:09;100439.56;;;1.87;100.00
24858;BME280;12935;50.782;6.074;2023-03-04T00:36:34;100435.59;;;1.93;100.00
24858;BME280;12935;50.782;6.074;2023-03-04T00:39:00;100433.69;;;1.85;100.00
24858;BME280;12935;50.782;6.074;2023-03-04T00:41:25;100414.28;;;1.74;100.00
24858;BME280;12935;50.782;6.074;2023-03-04T00:43:51;100428.25;;;1.76;100.00
24858;BME280;12935;50.782;6.074;2023-03-04T00:46:16;100422.38;;;1.74;100.00
24858;BME280;12935;50.782;6.074;2023-03-04T00:48:41;100425.25;;;1.77;100.00
24858;BME280;12935;50.782;6.074;2023-03-04T00:51:06;100427.13;;;1.77;100.00
24858;BME280;12935;50.782;6.074;2023-03-04T00:53:32;100422.09;;;1.84;100.00
24858;BME280;12935;50.782;6.074;2023-03-04T00:55:57;100419.22;;;1.81;100.00
24858;BME280;12935;50.782;6.074;2023-03-04T00:58:22;100420.53;;;1.83;100.00
24858;BME280;12935;50.782;6.074;2023-03-04T01:00:48;100423.22;;;1.92;100.00
24858;BME280;12935;50.782;6.074;2023-03-04T01:03:13;100421.38;;;2.09;100.00
24858;BME280;12935;50.782;6.074;2023-03-04T01:05:38;100419.19;;;2.29;100.00
24858;BME280;12935;50.782;6.074;2023-03-04T01:08:04;100431.72;;;2.42;100.00
24858;BME280;12935;50.782;6.074;2023-03-04T01:10:30;100424.41;;;2.25;100.00
24858;BME280;12935;50.782;6.074;2023-03-04T01:12:56;100423.78;;;2.28;100.00
24858;BME280;12935;50.782;6.074;2023-03-04T01:15:22;100422.81;;;2.24;100.00
24858;BME280;12935;50.782;6.074;2023-03-04T01:17:47;100425.97;;;2.09;100.00
24858;BME280;12935;50.782;6.074;2023-03-04T01:20:13;100426.56;;;1.97;100.00
24858;BME280;12935;50.782;6.074;2023-03-04T01:22:38;100424.63;;;1.89;100.00
24858;BME280;12935;50.782;6.074;2023-03-04T01:25:05;100412.91;;;1.85;100.00
24858;BME280;12935;50.782;6.074;2023-03-04T01:27:31;100413.38;;;1.79;100.00
24858;BME280;12935;50.782;6.074;2023-03-04T01:29:56;100405.91;;;1.75;100.00
24858;BME280;12935;50.782;6.074;2023-03-04T01:32:21;100411.78;;;1.77;100.00
24858;BME280;12935;50.782;6.074;2023-03-04T01:34:46;100413.53;;;1.82;100.00
24858;BME280;12935;50.782;6.074;2023-03-04T01:37:12;100413.53;;;1.82;100.00
24858;BME280;12935;50.782;6.074;2023-03-04T01:39:40;100398.47;;;1.90;100.00
24858;BME280;12935;50.782;6.074;2023-03-04T01:42:17;100404.06;;;1.93;100.00
24858;BME280;12935;50.782;6.074;2023-03-04T01:44:45;100391.53;;;1.97;100.00
24858;BME280;12935;50.782;6.074;2023-03-04T01:47:11;100396.78;;;2.11;100.00
24858;BME280;12935;50.782;6.074;2023-03-04T01:49:37;100388.72;;;2.20;100.00
24858;BME280;12935;50.782;6.074;2023-03-04T01:52:03;100386.19;;;2.23;100.00
24858;BME280;12935;50.782;6.074;2023-03-04T01:54:30;100376.50;;;2.22;100.00
24858;BME280;12935;50.782;6.074;2023-03-04T01:56:56;100382.41;;;2.33;100.00
24858;BME280;12935;50.782;6.074;2023-03-04T01:59:26;100380.50;;;2.33;100.00
24858;BME280;12935;50.782;6.074;2023-03-04T02:01:57;100376.84;;;2.46;100.00
24858;BME280;12935;50.782;6.074;2023-03-04T02:04:26;100380.16;;;2.52;100.00
24858;BME280;12935;50.782;6.074;2023-03-04T02:06:54;100376.34;;;2.70;100.00
24858;BME280;12935;50.782;6.074;2023-03-04T02:09:21;100373.34;;;2.63;100.00
24858;BME280;12935;50.782;6.074;2023-03-04T02:11:48;100367.31;;;2.66;100.00
24858;BME280;12935;50.782;6.074;2023-03-04T02:14:15;100370.81;;;2.67;100.00
24858;BME280;12935;50.782;6.074;2023-03-04T02:16:41;100359.84;;;2.80;100.00
24858;BME280;12935;50.782;6.074;2023-03-04T02:19:13;100352.81;;;2.88;100.00
24858;BME280;12935;50.782;6.074;2023-03-04T02:21:40;100362.06;;;2.78;100.00
24858;BME280;12935;50.782;6.074;2023-03-04T02:24:13;100361.38;;;2.90;100.00
24858;BME280;12935;50.782;6.074;2023-03-04T02:26:40;100363.81;;;2.83;100.00
24858;BME280;12935;50.782;6.074;2023-03-04T02:29:09;100363.97;;;2.78;100.00
24858;BME280;12935;50.782;6.074;2023-03-04T02:31:43;100362.06;;;2.61;100.00
24858;BME280;12935;50.782;6.074;2023-03-04T02:34:16;100363.47;;;2.76;100.00
24858;BME280;12935;50.782;6.074;2023-03-04T02:36:44;100357.44;;;2.79;100.00
24858;BME280;12935;50.782;6.074;2023-03-04T02:41:49;100350.75;;;2.94;100.00
24858;BME280;12935;50.782;6.074;2023-03-04T02:44:18;100352.31;;;3.03;100.00
24858;BME280;12935;50.782;6.074;2023-03-04T02:46:45;100359.13;;;3.09;100.00
24858;BME280;12935;50.782;6.074;2023-03-04T02:49:10;100349.13;;;3.10;100.00
24858;BME280;12935;50.782;6.074;2023-03-04T02:51:36;100345.78;;;3.13;100.00
24858;BME280;12935;50.782;6.074;2023-03-04T02:54:01;100346.34;;;2.80;100.00
24858;BME280;12935;50.782;6.074;2023-03-04T02:56:27;100352.56;;;2.64;100.00
24858;BME280;12935;50.782;6.074;2023-03-04T02:58:52;100352.72;;;2.67;100.00
24858;BME280;12935;50.782;6.074;2023-03-04T03:01:17;100354.13;;;2.73;100.00
24858;BME280;12935;50.782;6.074;2023-03-04T03:03:43;100342.38;;;2.69;100.00
24858;BME280;12935;50.782;6.074;2023-03-04T03:06:08;100345.53;;;2.71;100.00
24858;BME280;12935;50.782;6.074;2023-03-04T03:08:34;100340.75;;;2.86;100.00
24858;BME280;12935;50.782;6.074;2023-03-04T03:10:59;100324.34;;;2.99;100.00
24858;BME280;12935;50.782;6.074;2023-03-04T03:13:24;100315.69;;;2.76;100.00
24858;BME280;12935;50.782;6.074;2023-03-04T03:15:50;100328.88;;;2.78;100.00
24858;BME280;12935;50.782;6.074;2023-03-04T03:18:15;100329.84;;;2.73;100.00
24858;BME280;12935;50.782;6.074;2023-03-04T03:20:41;100332.53;;;2.73;100.00
24858;BME280;12935;50.782;6.074;2023-03-04T03:23:07;100331.41;;;2.83;100.00
24858;BME280;12935;50.782;6.074;2023-03-04T03:25:32;100327.72;;;2.88;100.00
24858;BME280;12935;50.782;6.074;2023-03-04T03:27:58;100324.19;;;3.04;100.00
24858;BME280;12935;50.782;6.074;2023-03-04T03:30:23;100326.34;;;3.20;100.00
24858;BME280;12935;50.782;6.074;2023-03-04T03:32:48;100320.78;;;3.25;100.00
24858;BME280;12935;50.782;6.074;2023-03-04T03:35:14;100320.94;;;3.28;100.00
24858;BME280;12935;50.782;6.074;2023-03-04T03:37:39;100321.22;;;3.35;100.00
24858;BME280;12935;50.782;6.074;2023-03-04T03:40:05;100308.22;;;3.29;100.00
24858;BME280;12935;50.782;6.074;2023-03-04T03:42:30;100313.41;;;3.42;100.00
24858;BME280;12935;50.782;6.074;2023-03-04T03:44:55;100322.28;;;3.13;100.00
24858;BME280;12935;50.782;6.074;2023-03-04T03:47:22;100317.81;;;3.09;100.00
24858;BME280;12935;50.782;6.074;2023-03-04T03:49:47;100320.53;;;3.00;100.00
24858;BME280;12935;50.782;6.074;2023-03-04T03:52:13;100313.44;;;2.87;100.00
24858;BME280;12935;50.782;6.074;2023-03-04T03:54:38;100310.31;;;2.76;100.00
24858;BME280;12935;50.782;6.074;2023-03-04T03:57:03;100311.88;;;2.77;100.00
24858;BME280;12935;50.782;6.074;2023-03-04T03:59:29;100320.00;;;2.77;100.00
24858;BME280;12935;50.782;6.074;2023-03-04T04:01:54;100310.47;;;2.80;100.00
24858;BME280;12935;50.782;6.074;2023-03-04T04:04:19;100308.19;;;2.91;100.00
24858;BME280;12935;50.782;6.074;2023-03-04T04:06:45;100309.75;;;3.00;100.00
24858;BME280;12935;50.782;6.074;2023-03-04T04:09:10;100311.66;;;3.00;100.00
24858;BME280;12935;50.782;6.074;2023-03-04T04:11:35;100309.00;;;2.91;100.00
24858;BME280;12935;50.782;6.074;2023-03-04T04:14:01;100313.63;;;2.82;100.00
24858;BME280;12935;50.782;6.074;2023-03-04T04:16:26;100308.84;;;2.88;100.00
24858;BME280;12935;50.782;6.074;2023-03-04T04:18:52;100314.06;;;2.84;100.00
24858;BME280;12935;50.782;6.074;2023-03-04T04:21:17;100308.84;;;2.88;100.00
24858;BME280;12935;50.782;6.074;2023-03-04T04:23:42;100311.34;;;3.01;100.00
24858;BME280;12935;50.782;6.074;2023-03-04T04:26:08;100305.13;;;3.09;100.00
24858;BME280;12935;50.782;6.074;2023-03-04T04:28:33;100308.94;;;3.00;100.00
24858;BME280;12935;50.782;6.074;2023-03-04T04:30:58;100308.19;;;2.91;100.00
24858;BME280;12935;50.782;6.074;2023-03-04T04:33:24;100304.56;;;2.87;100.00
24858;BME280;12935;50.782;6.074;2023-03-04T04:35:49;100308.69;;;2.84;100.00
24858;BME280;12935;50.782;6.074;2023-03-04T04:38:14;100298.41;;;2.77;100.00
24858;BME280;12935;50.782;6.074;2023-03-04T04:40:40;100307.91;;;2.75;100.00
24858;BME280;12935;50.782;6.074;2023-03-04T04:43:07;100303.97;;;2.72;100.00
24858;BME280;12935;50.782;6.074;2023-03-04T04:45:32;100304.75;;;2.73;100.00
24858;BME280;12935;50.782;6.074;2023-03-04T04:47:58;100309.19;;;2.77;100.00
24858;BME280;12935;50.782;6.074;2023-03-04T04:50:24;100313.00;;;2.76;100.00
24858;BME280;12935;50.782;6.074;2023-03-04T04:52:49;100310.78;;;2.78;100.00
24858;BME280;12935;50.782;6.074;2023-03-04T04:55:18;100313.94;;;2.80;100.00
24858;BME280;12935;50.782;6.074;2023-03-04T04:57:43;100315.34;;;2.95;100.00
24858;BME280;12935;50.782;6.074;2023-03-04T05:00:09;100320.44;;;2.88;100.00
24858;BME280;12935;50.782;6.074;2023-03-04T05:02:35;100325.53;;;2.81;100.00
24858;BME280;12935;50.782;6.074;2023-03-04T05:05:05;100326.66;;;2.80;100.00
24858;BME280;12935;50.782;6.074;2023-03-04T05:07:31;100326.28;;;2.99;100.00
24858;BME280;12935;50.782;6.074;2023-03-04T05:09:56;100323.59;;;2.99;100.00
24858;BME280;12935;50.782;6.074;2023-03-04T05:12:21;100330.06;;;3.06;100.00
24858;BME280;12935;50.782;6.074;2023-03-04T05:14:46;100319.16;;;2.94;100.00
24858;BME280;12935;50.782;6.074;2023-03-04T05:17:12;100328.69;;;2.92;100.00
24858;BME280;12935;50.782;6.074;2023-03-04T05:19:37;100323.75;;;2.94;100.00
24858;BME280;12935;50.782;6.074;2023-03-04T05:22:02;100331.53;;;2.95;100.00
24858;BME280;12935;50.782;6.074;2023-03-04T05:24:28;100323.59;;;2.99;100.00
24858;BME280;12935;50.782;6.074;2023-03-04T05:26:53;100334.56;;;2.94;100.00
24858;BME280;12935;50.782;6.074;2023-03-04T05:29:18;100321.53;;;2.96;100.00
24858;BME280;12935;50.782;6.074;2023-03-04T05:31:44;100323.13;;;2.97;100.00
24858;BME280;12935;50.782;6.074;2023-03-04T05:34:09;100312.16;;;2.85;100.00
24858;BME280;12935;50.782;6.074;2023-03-04T05:36:34;100322.50;;;2.91;100.00
24858;BME280;12935;50.782;6.074;2023-03-04T05:38:59;100329.94;;;2.94;100.00
24858;BME280;12935;50.782;6.074;2023-03-04T05:41:25;100323.75;;;2.94;100.00
24858;BME280;12935;50.782;6.074;2023-03-04T05:43:50;100324.34;;;2.99;100.00
24858;BME280;12935;50.782;6.074;2023-03-04T05:46:17;100328.03;;;2.95;100.00
24858;BME280;12935;50.782;6.074;2023-03-04T05:48:43;100325.34;;;2.86;100.00
24858;BME280;12935;50.782;6.074;2023-03-04T05:51:09;100329.75;;;3.08;100.00
24858;BME280;12935;50.782;6.074;2023-03-04T05:53:35;100332.59;;;3.11;100.00
24858;BME280;12935;50.782;6.074;2023-03-04T05:56:12;100340.91;;;2.98;100.00
24858;BME280;12935;50.782;6.074;2023-03-04T05:58:37;100343.25;;;2.99;100.00
24858;BME280;12935;50.782;6.074;2023-03-04T06:01:04;100345.34;;;2.94;100.00
24858;BME280;12935;50.782;6.074;2023-03-04T06:03:29;100336.00;;;2.91;100.00
24858;BME280;12935;50.782;6.074;2023-03-04T06:05:55;100338.81;;;3.03;100.00
24858;BME280;12935;50.782;6.074;2023-03-04T06:08:21;100343.34;;;3.20;100.00
24858;BME280;12935;50.782;6.074;2023-03-04T06:10:46;100343.34;;;3.20;100.00
24858;BME280;12935;50.782;6.074;2023-03-04T06:13:12;100338.78;;;3.12;100.00
24858;BME280;12935;50.782;6.074;2023-03-04T06:15:38;100340.22;;;3.09;100.00
24858;BME280;12935;50.782;6.074;2023-03-04T06:18:05;100339.38;;;3.17;100.00
24858;BME280;12935;50.782;6.074;2023-03-04T06:20:30;100334.44;;;3.28;100.00
24858;BME280;12935;50.782;6.074;2023-03-04T06:22:55;100343.78;;;3.31;100.00
24858;BME280;12935;50.782;6.074;2023-03-04T06:25:21;100341.59;;;3.24;100.00
24858;BME280;12935;50.782;6.074;2023-03-04T06:27:47;100348.28;;;3.18;100.00
24858;BME280;12935;50.782;6.074;2023-03-04T06:30:12;100349.06;;;3.18;100.00
24858;BME280;12935;50.782;6.074;2023-03-04T06:32:38;100347.81;;;3.16;100.00
24858;BME280;12935;50.782;6.074;2023-03-04T06:35:05;100353.66;;;3.27;100.00
24858;BME280;12935;50.782;6.074;2023-03-04T06:37:30;100361.31;;;3.16;100.00
24858;BME280;12935;50.782;6.074;2023-03-04T06:39:55;100361.00;;;3.17;100.00
24858;BME280;12935;50.782;6.074;2023-03-04T06:42:21;100350.31;;;3.30;100.00
24858;BME280;12935;50.782;6.074;2023-03-04T06:44:48;100358.44;;;3.21;100.00
24858;BME280;12935;50.782;6.074;2023-03-04T06:47:13;100357.97;;;3.28;100.00
24858;BME280;12935;50.782;6.074;2023-03-04T06:49:39;100363.22;;;3.24;100.00
24858;BME280;12935;50.782;6.074;2023-03-04T06:52:04;100371.00;;;3.17;100.00
24858;BME280;12935;50.782;6.074;2023-03-04T06:54:29;100360.09;;;3.05;100.00
24858;BME280;12935;50.782;6.074;2023-03-04T06:56:55;100375.00;;;3.02;100.00
24858;BME280;12935;50.782;6.074;2023-03-04T06:59:21;100362.94;;;3.00;100.00
24858;BME280;12935;50.782;6.074;2023-03-04T07:01:47;100364.84;;;3.08;100.00
24858;BME280;12935;50.782;6.074;2023-03-04T07:04:12;100372.63;;;3.09;100.00
24858;BME280;12935;50.782;6.074;2023-03-04T07:06:37;100366.44;;;3.09;100.00
24858;BME280;12935;50.782;6.074;2023-03-04T07:09:03;100373.22;;;3.15;100.00
24858;BME280;12935;50.782;6.074;2023-03-04T07:11:28;100366.25;;;3.14;100.00
24858;BME280;12935;50.782;6.074;2023-03-04T07:13:53;100375.94;;;3.15;100.00
24858;BME280;12935;50.782;6.074;2023-03-04T07:16:20;100384.16;;;3.27;100.00
24858;BME280;12935;50.782;6.074;2023-03-04T07:18:46;100385.28;;;3.26;100.00
24858;BME280;12935;50.782;6.074;2023-03-04T07:21:13;100384.50;;;3.26;100.00
24858;BME280;12935;50.782;6.074;2023-03-04T07:23:39;100388.41;;;3.37;100.00
24858;BME280;12935;50.782;6.074;2023-03-04T07:26:05;100390.50;;;3.31;100.00
24858;BME280;12935;50.782;6.074;2023-03-04T07:28:31;100389.69;;;3.31;100.00
24858;BME280;12935;50.782;6.074;2023-03-04T07:30:56;100386.97;;;3.39;100.00
24858;BME280;12935;50.782;6.074;2023-03-04T07:33:22;100396.16;;;3.47;100.00
24858;BME280;12935;50.782;6.074;2023-03-04T07:35:47;100387.25;;;3.46;100.00
24858;BME280;12935;50.782;6.074;2023-03-04T07:38:12;100395.66;;;3.53;100.00
24858;BME280;12935;50.782;6.074;2023-03-04T07:40:37;100380.28;;;3.45;100.00
24858;BME280;12935;50.782;6.074;2023-03-04T07:43:03;100390.59;;;3.52;100.00
24858;BME280;12935;50.782;6.074;2023-03-04T07:45:29;100390.88;;;3.59;100.00
24858;BME280;12935;50.782;6.074;2023-03-04T07:47:57;100390.91;;;3.50;100.00
24858;BME280;12935;50.782;6.074;2023-03-04T07:50:22;100399.00;;;3.59;100.00
24858;BME280;12935;50.782;6.074;2023-03-04T07:52:48;100400.38;;;3.65;100.00
24858;BME280;12935;50.782;6.074;2023-03-04T07:55:18;100401.63;;;3.68;100.00
24858;BME280;12935;50.782;6.074;2023-03-04T07:57:45;100399.78;;;3.60;100.00
24858;BME280;12935;50.782;6.074;2023-03-04T08:00:15;100395.50;;;3.59;100.00
24858;BME280;12935;50.782;6.074;2023-03-04T08:02:42;100392.78;;;3.59;100.00
24858;BME280;12935;50.782;6.074;2023-03-04T08:05:08;100401.69;;;3.59;100.00
24858;BME280;12935;50.782;6.074;2023-03-04T08:07:33;100399.59;;;3.65;100.00
24858;BME280;12935;50.782;6.074;2023-03-04T08:09:59;100401.97;;;3.66;100.00
24858;BME280;12935;50.782;6.074;2023-03-04T08:12:25;100404.34;;;3.68;100.00
24858;BME280;12935;50.782;6.074;2023-03-04T08:14:52;100406.25;;;3.67;100.00
24858;BME280;12935;50.782;6.074;2023-03-04T08:17:17;100409.75;;;3.68;100.00
24858;BME280;12935;50.782;6.074;2023-03-04T08:19:43;100408.31;;;3.70;100.00
24858;BME280;12935;50.782;6.074;2023-03-04T08:22:09;100408.59;;;3.77;100.00
24858;BME280;12935;50.782;6.074;2023-03-04T08:24:34;100403.06;;;3.74;100.00
24858;BME280;12935;50.782;6.074;2023-03-04T08:26:59;100409.56;;;3.73;100.00
24858;BME280;12935;50.782;6.074;2023-03-04T08:29:25;100404.63;;;3.75;100.00
24858;BME280;12935;50.782;6.074;2023-03-04T08:31:51;100414.78;;;3.78;100.00
24858;BME280;12935;50.782;6.074;2023-03-04T08:34:19;100407.13;;;3.80;100.00
24858;BME280;12935;50.782;6.074;2023-03-04T08:36:45;100421.13;;;3.82;100.00
24858;BME280;12935;50.782;6.074;2023-03-04T08:39:15;100416.03;;;3.80;100.00
24858;BME280;12935;50.782;6.074;2023-03-04T08:41:41;100414.78;;;3.78;100.00
24858;BME280;12935;50.782;6.074;2023-03-04T08:44:07;100421.78;;;3.79;100.00
24858;BME280;12935;50.782;6.074;2023-03-04T08:46:35;100429.56;;;3.80;100.00
24858;BME280;12935;50.782;6.074;2023-03-04T08:49:00;100425.56;;;3.86;100.00
24858;BME280;12935;50.782;6.074;2023-03-04T08:51:26;100424.72;;;3.95;100.00
24858;BME280;12935;50.782;6.074;2023-03-04T08:53:51;100430.28;;;3.98;100.00
24858;BME280;12935;50.782;6.074;2023-03-04T08:56:17;100432.31;;;4.01;100.00
24858;BME280;12935;50.782;6.074;2023-03-04T08:58:42;100426.41;;;4.08;100.00
24858;BME280;12935;50.782;6.074;2023-03-04T09:01:09;100424.59;;;4.20;100.00
24858;BME280;12935;50.782;6.074;2023-03-04T09:03:35;100429.78;;;4.26;100.00
24858;BME280;12935;50.782;6.074;2023-03-04T09:06:02;100426.09;;;4.30;100.00
24858;BME280;12935;50.782;6.074;2023-03-04T09:08:27;100417.97;;;4.30;100.00
24858;BME280;12935;50.782;6.074;2023-03-04T09:10:53;100427.50;;;4.36;100.00
24858;BME280;12935;50.782;6.074;2023-03-04T09:13:20;100430.19;;;4.57;100.00
24858;BME280;12935;50.782;6.074;2023-03-04T09:15:46;100431.66;;;4.54;100.00
24858;BME280;12935;50.782;6.074;2023-03-04T09:18:13;100421.03;;;4.49;100.00
24858;BME280;12935;50.782;6.074;2023-03-04T09:20:39;100424.00;;;4.56;100.00
24858;BME280;12935;50.782;6.074;2023-03-04T09:23:05;100426.38;;;4.79;100.00
24858;BME280;12935;50.782;6.074;2023-03-04T09:25:30;100421.59;;;4.76;100.00
24858;BME280;12935;50.782;6.074;2023-03-04T09:27:55;100421.09;;;4.62;100.00
24858;BME280;12935;50.782;6.074;2023-03-04T09:30:21;100421.41;;;4.60;100.00
24858;BME280;12935;50.782;6.074;2023-03-04T09:32:46;100422.03;;;4.66;100.00
24858;BME280;12935;50.782;6.074;2023-03-04T09:35:15;100422.00;;;4.86;100.00
24858;BME280;12935;50.782;6.074;2023-03-04T09:37:40;100421.78;;;4.91;100.00
24858;BME280;12935;50.782;6.074;2023-03-04T09:40:07;100418.38;;;4.82;100.00
24858;BME280;12935;50.782;6.074;2023-03-04T09:42:42;100419.88;;;4.92;100.00
24858;BME280;12935;50.782;6.074;2023-03-04T09:45:14;100419.81;;;4.80;100.00
24858;BME280;12935;50.782;6.074;2023-03-04T09:47:41;100424.44;;;4.79;100.00
24858;BME280;12935;50.782;6.074;2023-03-04T09:50:08;100418.94;;;4.88;100.00
24858;BME280;12935;50.782;6.074;2023-03-04T09:55:24;100418.56;;;4.77;100.00
24858;BME280;12935;50.782;6.074;2023-03-04T09:58:04;100412.81;;;4.79;100.00
24858;BME280;12935;50.782;6.074;2023-03-04T10:00:46;100414.41;;;4.80;100.00
24858;BME280;12935;50.782;6.074;2023-03-04T10:03:21;100407.91;;;4.93;100.00
24858;BME280;12935;50.782;6.074;2023-03-04T10:06:06;100404.22;;;4.98;100.00
24858;BME280;12935;50.782;6.074;2023-03-04T10:11:27;100405.13;;;5.83;100.00
24858;BME280;12935;50.782;6.074;2023-03-04T10:16:51;100401.88;;;5.90;100.00
24858;BME280;12935;50.782;6.074;2023-03-04T10:19:27;100403.88;;;5.69;100.00
24858;BME280;12935;50.782;6.074;2023-03-04T10:21:54;100406.16;;;5.67;100.00
24858;BME280;12935;50.782;6.074;2023-03-04T10:24:21;100401.06;;;5.65;100.00
24858;BME280;12935;50.782;6.074;2023-03-04T10:26:51;100405.34;;;5.54;100.00
24858;BME280;12935;50.782;6.074;2023-03-04T10:29:20;100405.81;;;5.68;100.00
24858;BME280;12935;50.782;6.074;2023-03-04T10:31:47;100397.00;;;6.20;100.00
24858;BME280;12935;50.782;6.074;2023-03-04T10:34:15;100393.19;;;6.49;100.00
24858;BME280;12935;50.782;6.074;2023-03-04T10:36:52;100395.59;;;6.38;100.00
24858;BME280;12935;50.782;6.074;2023-03-04T10:39:30;100393.25;;;5.88;100.00
24858;BME280;12935;50.782;6.074;2023-03-04T10:44:53;100386.22;;;7.51;100.00
24858;BME280;12935;50.782;6.074;2023-03-04T10:47:23;100386.91;;;7.32;100.00
24858;BME280;12935;50.782;6.074;2023-03-04T10:49:54;100379.25;;;6.90;100.00
24858;BME280;12935;50.782;6.074;2023-03-04T10:52:30;100382.25;;;6.45;100.00
24858;BME280;12935;50.782;6.074;2023-03-04T10:55:02;100383.44;;;6.08;100.00
24858;BME280;12935;50.782;6.074;2023-03-04T10:57:34;100385.94;;;6.01;100.00
24858;BME280;12935;50.782;6.074;2023-03-04T11:00:26;100381.84;;;6.19;100.00
24858;BME280;12935;50.782;6.074;2023-03-04T11:02:52;100379.25;;;6.22;100.00
24858;BME280;12935;50.782;6.074;2023-03-04T11:05:24;100387.31;;;5.94;100.00
24858;BME280;12935;50.782;6.074;2023-03-04T11:07:54;100381.44;;;5.92;100.00
24858;BME280;12935;50.782;6.074;2023-03-04T11:10:38;100380.53;;;5.88;100.00
24858;BME280;12935;50.782;6.074;2023-03-04T11:18:43;100384.47;;;5.67;100.00
24858;BME280;12935;50.782;6.074;2023-03-04T11:21:20;100380.06;;;5.62;100.00
24858;BME280;12935;50.782;6.074;2023-03-04T11:23:57;100372.94;;;5.45;100.00
24858;BME280;12935;50.782;6.074;2023-03-04T11:26:35;100375.84;;;5.52;100.00
24858;BME280;12935;50.782;6.074;2023-03-04T11:29:29;100379.47;;;5.44;100.00
24858;BME280;12935;50.782;6.074;2023-03-04T11:32:01;100375.19;;;5.43;100.00
24858;BME280;12935;50.782;6.074;2023-03-04T11:37:14;100374.41;;;5.55;100.00
24858;BME280;12935;50.782;6.074;2023-03-04T11:45:10;100358.31;;;6.23;100.00
24858;BME280;12935;50.782;6.074;2023-03-04T11:48:03;100357.69;;;6.14;100.00
24858;BME280;12935;50.782;6.074;2023-03-04T11:50:51;100356.09;;;6.01;100.00
24858;BME280;12935;50.782;6.074;2023-03-04T11:56:18;100348.38;;;6.55;100.00
24858;BME280;12935;50.782;6.074;2023-03-04T11:59:00;100344.56;;;6.72;100.00
24858;BME280;12935;50.782;6.074;2023-03-04T12:10:37;100329.75;;;6.13;100.00
24858;BME280;12935;50.782;6.074;2023-03-04T12:18:28;100326.09;;;6.21;100.00
24858;BME280;12935;50.782;6.074;2023-03-04T12:21:10;100315.81;;;6.27;100.00
24858;BME280;12935;50.782;6.074;2023-03-04T12:26:37;100305.69;;;6.12;100.00
24858;BME280;12935;50.782;6.074;2023-03-04T12:29:07;100302.84;;;6.08;100.00
24858;BME280;12935;50.782;6.074;2023-03-04T12:31:40;100304.38;;;6.21;100.00
24858;BME280;12935;50.782;6.074;2023-03-04T12:54:01;100283.75;;;6.05;100.00
24858;BME280;12935;50.782;6.074;2023-03-04T12:56:36;100277.75;;;5.99;100.00
24858;BME280;12935;50.782;6.074;2023-03-04T12:59:02;100277.47;;;5.88;100.00
24858;BME280;12935;50.782;6.074;2023-03-04T13:01:54;100263.91;;;5.88;100.00
24858;BME280;12935;50.782;6.074;2023-03-04T13:07:21;100270.44;;;5.87;100.00
24858;BME280;12935;50.782;6.074;2023-03-04T13:10:00;100264.09;;;5.83;100.00
24858;BME280;12935;50.782;6.074;2023-03-04T13:12:51;100262.56;;;5.82;100.00
24858;BME280;12935;50.782;6.074;2023-03-04T13:25:32;100249.53;;;5.88;100.00
24858;BME280;12935;50.782;6.074;2023-03-04T13:41:14;100240.22;;;6.13;100.00
24858;BME280;12935;50.782;6.074;2023-03-04T13:43:48;100239.91;;;6.03;100.00
24858;BME280;12935;50.782;6.074;2023-03-04T14:04:19;100219.31;;;6.02;100.00
24858;BME280;12935;50.782;6.074;2023-03-04T14:06:47;100221.59;;;5.99;100.00
24858;BME280;12935;50.782;6.074;2023-03-04T14:09:19;100219.78;;;6.04;100.00
24858;BME280;12935;50.782;6.074;2023-03-04T14:11:47;100216.81;;;6.09;100.00
24858;BME280;12935;50.782;6.074;2023-03-04T14:14:17;100219.97;;;6.11;100.00
24858;BME280;12935;50.782;6.074;2023-03-04T14:19:16;100212.09;;;6.06;100.00
24858;BME280;12935;50.782;6.074;2023-03-04T14:21:46;100221.25;;;6.01;100.00
24858;BME280;12935;50.782;6.074;2023-03-04T14:24:19;100208.13;;;6.03;100.00
24858;BME280;12935;50.782;6.074;2023-03-04T14:26:45;100209.16;;;5.98;100.00
24858;BME280;12935;50.782;6.074;2023-03-04T14:29:23;100204.53;;;5.87;100.00
24858;BME280;12935;50.782;6.074;2023-03-04T14:31:49;100206.72;;;5.81;100.00
24858;BME280;12935;50.782;6.074;2023-03-04T14:34:22;100199.00;;;5.83;100.00
24858;BME280;12935;50.782;6.074;2023-03-04T14:36:48;100185.69;;;5.90;100.00
24858;BME280;12935;50.782;6.074;2023-03-04T14:39:15;100190.63;;;6.01;100.00
24858;BME280;12935;50.782;6.074;2023-03-04T14:41:42;100184.06;;;6.02;100.00
24858;BME280;12935;50.782;6.074;2023-03-04T14:46:51;100183.97;;;5.98;100.00
24858;BME280;12935;50.782;6.074;2023-03-04T14:49:19;100180.38;;;5.94;100.00